Liverpool, Illinois
Current Conditions -  °F | °C
As of 1:54 PM on Friday 31 Oct 2014 (Local Time) from KPIA Reporting Station
Scattered Clouds Scattered Clouds  
Wind Chill:   Ceiling: Unl
Heat Index:   Visibility: 10mi
Dew Point: -7°   Wind: 15mph
Humidity: 37%   Direction: 10°N
Pressure: 30.27"   Gusts: 25mph
Location:  40.39°N, 90°W
Report Text: KPIA 311854Z 01013G22KT 10SM SCT055 07/M07 A3027 RMK AO2 PK WND 36028/1835 SLP252 T00721067
Loading
Personal Weather Stations






























Interactive Weather Map
Tropical Storm Tracking
New forecast layout! Learn more

10-Day Weather Forecast

Advertisements
Track Severe Weather on mobile